sensor_id;sensor_type;location;lat;lon;timestamp;pressure;altitude;pressure_sealevel;temperature;humidity
3968;BME280;9221;42.646;23.380;2024-03-22T00:00:38;94545.13;;;8.61;44.03
3968;BME280;9221;42.646;23.380;2024-03-22T00:03:04;94540.00;;;8.60;44.63
3968;BME280;9221;42.646;23.380;2024-03-22T00:05:30;94550.22;;;8.43;45.15
3968;BME280;9221;42.646;23.380;2024-03-22T00:07:55;94556.03;;;8.47;45.45
3968;BME280;9221;42.646;23.380;2024-03-22T00:10:21;94554.63;;;8.13;45.90
3968;BME280;9221;42.646;23.380;2024-03-22T00:12:49;94549.84;;;7.88;46.45
3968;BME280;9221;42.646;23.380;2024-03-22T00:15:14;94546.28;;;7.89;47.46
3968;BME280;9221;42.646;23.380;2024-03-22T00:17:39;94542.66;;;7.90;47.43
3968;BME280;9221;42.646;23.380;2024-03-22T00:20:06;94540.19;;;7.98;47.10
3968;BME280;9221;42.646;23.380;2024-03-22T00:22:32;94540.97;;;7.69;46.60
3968;BME280;9221;42.646;23.380;2024-03-22T00:24:58;94545.97;;;7.72;46.87
3968;BME280;9221;42.646;23.380;2024-03-22T00:27:23;94553.16;;;7.90;46.90
3968;BME280;9221;42.646;23.380;2024-03-22T00:29:49;94552.38;;;7.99;46.59
3968;BME280;9221;42.646;23.380;2024-03-22T00:32:14;94557.34;;;8.02;47.46
3968;BME280;9221;42.646;23.380;2024-03-22T00:34:39;94556.09;;;7.56;48.13
3968;BME280;9221;42.646;23.380;2024-03-22T00:37:05;94554.13;;;7.38;48.35
3968;BME280;9221;42.646;23.380;2024-03-22T00:39:30;94553.84;;;7.41;48.82
3968;BME280;9221;42.646;23.380;2024-03-22T00:41:56;94562.56;;;6.90;49.66
3968;BME280;9221;42.646;23.380;2024-03-22T00:44:21;94561.16;;;6.86;50.03
3968;BME280;9221;42.646;23.380;2024-03-22T00:46:47;94564.94;;;6.93;49.78
3968;BME280;9221;42.646;23.380;2024-03-22T00:49:12;94553.94;;;6.78;49.85
3968;BME280;9221;42.646;23.380;2024-03-22T00:51:38;94551.19;;;6.80;50.46
3968;BME280;9221;42.646;23.380;2024-03-22T00:54:03;94546.09;;;7.09;50.06
3968;BME280;9221;42.646;23.380;2024-03-22T00:56:29;94553.72;;;6.91;50.19
3968;BME280;9221;42.646;23.380;2024-03-22T00:58:54;94550.66;;;6.86;50.67
3968;BME280;9221;42.646;23.380;2024-03-22T01:01:20;94541.94;;;6.75;51.41
3968;BME280;9221;42.646;23.380;2024-03-22T01:03:45;94541.94;;;6.75;51.87
3968;BME280;9221;42.646;23.380;2024-03-22T01:06:11;94549.75;;;6.97;51.41
3968;BME280;9221;42.646;23.380;2024-03-22T01:08:36;94539.59;;;7.34;50.28
3968;BME280;9221;42.646;23.380;2024-03-22T01:11:01;94544.56;;;7.68;49.42
3968;BME280;9221;42.646;23.380;2024-03-22T01:13:27;94547.53;;;7.94;47.96
3968;BME280;9221;42.646;23.380;2024-03-22T01:15:52;94549.06;;;7.97;47.97
3968;BME280;9221;42.646;23.380;2024-03-22T01:18:18;94546.69;;;7.94;48.55
3968;BME280;9221;42.646;23.380;2024-03-22T01:20:43;94547.69;;;8.03;48.61
3968;BME280;9221;42.646;23.380;2024-03-22T01:23:09;94549.59;;;8.01;49.03
3968;BME280;9221;42.646;23.380;2024-03-22T01:25:34;94544.63;;;8.07;48.56
3968;BME280;9221;42.646;23.380;2024-03-22T01:28:00;94554.47;;;8.25;48.58
3968;BME280;9221;42.646;23.380;2024-03-22T01:30:25;94548.28;;;8.45;47.57
3968;BME280;9221;42.646;23.380;2024-03-22T01:32:54;94543.16;;;8.63;47.10
3968;BME280;9221;42.646;23.380;2024-03-22T01:35:20;94542.19;;;8.74;46.67
3968;BME280;9221;42.646;23.380;2024-03-22T01:37:45;94552.19;;;8.71;46.68
3968;BME280;9221;42.646;23.380;2024-03-22T01:40:12;94543.59;;;8.49;47.74
3968;BME280;9221;42.646;23.380;2024-03-22T01:42:38;94543.56;;;8.39;48.02
3968;BME280;9221;42.646;23.380;2024-03-22T01:45:04;94553.25;;;8.29;48.33
3968;BME280;9221;42.646;23.380;2024-03-22T01:47:30;94561.47;;;7.95;49.96
3968;BME280;9221;42.646;23.380;2024-03-22T01:49:55;94545.19;;;8.01;49.67
3968;BME280;9221;42.646;23.380;2024-03-22T01:52:22;94548.75;;;7.81;49.43
3968;BME280;9221;42.646;23.380;2024-03-22T01:54:48;94541.50;;;7.63;50.11
3968;BME280;9221;42.646;23.380;2024-03-22T01:57:14;94543.47;;;7.30;51.18
3968;BME280;9221;42.646;23.380;2024-03-22T01:59:39;94542.97;;;7.15;52.32
3968;BME280;9221;42.646;23.380;2024-03-22T02:02:05;94548.41;;;7.02;52.68
3968;BME280;9221;42.646;23.380;2024-03-22T02:04:31;94545.22;;;6.77;53.17
3968;BME280;9221;42.646;23.380;2024-03-22T02:06:57;94548.22;;;6.94;52.86
3968;BME280;9221;42.646;23.380;2024-03-22T02:09:22;94545.91;;;7.01;53.90
3968;BME280;9221;42.646;23.380;2024-03-22T02:11:48;94541.06;;;7.27;52.52
3968;BME280;9221;42.646;23.380;2024-03-22T02:14:14;94538.94;;;7.42;52.00
3968;BME280;9221;42.646;23.380;2024-03-22T02:16:40;94548.56;;;7.32;52.12
3968;BME280;9221;42.646;23.380;2024-03-22T02:19:06;94544.38;;;7.19;52.76
3968;BME280;9221;42.646;23.380;2024-03-22T02:21:32;94538.72;;;6.93;53.09
3968;BME280;9221;42.646;23.380;2024-03-22T02:23:57;94552.25;;;6.98;53.90
3968;BME280;9221;42.646;23.380;2024-03-22T02:26:23;94555.44;;;6.81;54.48
3968;BME280;9221;42.646;23.380;2024-03-22T02:28:48;94553.63;;;6.71;54.79
3968;BME280;9221;42.646;23.380;2024-03-22T02:31:14;94560.31;;;6.64;53.57
3968;BME280;9221;42.646;23.380;2024-03-22T02:33:40;94560.63;;;6.71;54.03
3968;BME280;9221;42.646;23.380;2024-03-22T02:36:05;94567.41;;;6.52;53.69
3968;BME280;9221;42.646;23.380;2024-03-22T02:38:31;94560.25;;;6.54;54.50
3968;BME280;9221;42.646;23.380;2024-03-22T02:40:57;94566.16;;;6.35;54.38
3968;BME280;9221;42.646;23.380;2024-03-22T02:43:23;94555.44;;;5.95;55.14
3968;BME280;9221;42.646;23.380;2024-03-22T02:45:49;94567.69;;;5.94;56.24
3968;BME280;9221;42.646;23.380;2024-03-22T02:48:14;94582.22;;;5.98;56.73
3968;BME280;9221;42.646;23.380;2024-03-22T02:50:40;94587.53;;;5.97;57.40
3968;BME280;9221;42.646;23.380;2024-03-22T02:53:06;94571.91;;;6.18;56.45
3968;BME280;9221;42.646;23.380;2024-03-22T02:55:39;94553.69;;;5.72;56.77
3968;BME280;9221;42.646;23.380;2024-03-22T02:58:08;94590.09;;;5.75;57.51
3968;BME280;9221;42.646;23.380;2024-03-22T03:00:37;94592.94;;;5.84;58.01
3968;BME280;9221;42.646;23.380;2024-03-22T03:03:05;94582.22;;;5.87;57.88
3968;BME280;9221;42.646;23.380;2024-03-22T03:05:30;94589.59;;;6.04;57.09
3968;BME280;9221;42.646;23.380;2024-03-22T03:07:55;94577.19;;;6.06;56.95
3968;BME280;9221;42.646;23.380;2024-03-22T03:10:21;94592.03;;;6.17;56.22
3968;BME280;9221;42.646;23.380;2024-03-22T03:12:47;94580.03;;;6.15;56.13
3968;BME280;9221;42.646;23.380;2024-03-22T03:15:12;94597.75;;;6.22;56.53
3968;BME280;9221;42.646;23.380;2024-03-22T03:17:38;94594.34;;;5.88;57.18
3968;BME280;9221;42.646;23.380;2024-03-22T03:20:04;94599.38;;;5.57;58.52
3968;BME280;9221;42.646;23.380;2024-03-22T03:22:33;94598.06;;;5.51;58.82
3968;BME280;9221;42.646;23.380;2024-03-22T03:24:59;94601.50;;;5.40;58.23
3968;BME280;9221;42.646;23.380;2024-03-22T03:27:25;94613.84;;;5.16;59.38
3968;BME280;9221;42.646;23.380;2024-03-22T03:29:50;94611.19;;;4.93;60.34
3968;BME280;9221;42.646;23.380;2024-03-22T03:32:16;94610.66;;;4.77;61.21
3968;BME280;9221;42.646;23.380;2024-03-22T03:34:41;94608.81;;;4.54;62.47
3968;BME280;9221;42.646;23.380;2024-03-22T03:37:07;94615.66;;;4.44;63.43
3968;BME280;9221;42.646;23.380;2024-03-22T03:39:32;94607.72;;;4.46;63.74
3968;BME280;9221;42.646;23.380;2024-03-22T03:41:58;94599.66;;;4.49;63.46
3968;BME280;9221;42.646;23.380;2024-03-22T03:44:23;94631.00;;;4.49;63.97
3968;BME280;9221;42.646;23.380;2024-03-22T03:46:49;94654.22;;;4.40;64.23
3968;BME280;9221;42.646;23.380;2024-03-22T03:49:14;94626.84;;;4.46;64.36
3968;BME280;9221;42.646;23.380;2024-03-22T03:51:39;94629.06;;;4.39;64.60
3968;BME280;9221;42.646;23.380;2024-03-22T03:54:05;94591.41;;;4.06;64.85
3968;BME280;9221;42.646;23.380;2024-03-22T03:56:31;94626.06;;;4.33;65.01
3968;BME280;9221;42.646;23.380;2024-03-22T03:58:56;94621.22;;;4.39;64.89
3968;BME280;9221;42.646;23.380;2024-03-22T04:01:21;94615.03;;;4.29;64.84
3968;BME280;9221;42.646;23.380;2024-03-22T04:03:48;94623.78;;;4.28;65.27
3968;BME280;9221;42.646;23.380;2024-03-22T04:06:14;94618.22;;;4.09;65.30
3968;BME280;9221;42.646;23.380;2024-03-22T04:08:40;94628.28;;;4.26;65.52
3968;BME280;9221;42.646;23.380;2024-03-22T04:11:05;94635.06;;;4.29;65.28
3968;BME280;9221;42.646;23.380;2024-03-22T04:13:30;94625.53;;;4.28;65.03
3968;BME280;9221;42.646;23.380;2024-03-22T04:15:58;94630.00;;;4.38;64.69
3968;BME280;9221;42.646;23.380;2024-03-22T04:18:24;94636.34;;;4.47;64.64
3968;BME280;9221;42.646;23.380;2024-03-22T04:20:56;94632.81;;;4.60;64.45
3968;BME280;9221;42.646;23.380;2024-03-22T04:23:23;94641.75;;;4.68;63.70
3968;BME280;9221;42.646;23.380;2024-03-22T04:25:59;94593.66;;;4.35;63.36
3968;BME280;9221;42.646;23.380;2024-03-22T04:28:26;94644.06;;;4.49;64.19
3968;BME280;9221;42.646;23.380;2024-03-22T04:31:05;94648.78;;;4.44;64.47
3968;BME280;9221;42.646;23.380;2024-03-22T04:33:32;94670.41;;;4.46;64.31
3968;BME280;9221;42.646;23.380;2024-03-22T04:35:59;94646.13;;;4.32;65.04
3968;BME280;9221;42.646;23.380;2024-03-22T04:38:26;94650.72;;;4.29;65.09
3968;BME280;9221;42.646;23.380;2024-03-22T04:40:52;94653.28;;;4.17;65.20
3968;BME280;9221;42.646;23.380;2024-03-22T04:43:18;94650.47;;;4.32;65.23
3968;BME280;9221;42.646;23.380;2024-03-22T04:45:45;94664.38;;;4.56;64.67
3968;BME280;9221;42.646;23.380;2024-03-22T04:48:13;94661.50;;;4.84;63.68
3968;BME280;9221;42.646;23.380;2024-03-22T04:50:38;94655.53;;;5.06;62.95
3968;BME280;9221;42.646;23.380;2024-03-22T04:53:04;94645.66;;;5.09;62.37
3968;BME280;9221;42.646;23.380;2024-03-22T04:55:31;94661.91;;;5.37;61.96
3968;BME280;9221;42.646;23.380;2024-03-22T04:57:58;94665.22;;;5.39;62.22
3968;BME280;9221;42.646;23.380;2024-03-22T05:00:23;94657.97;;;5.43;62.21
3968;BME280;9221;42.646;23.380;2024-03-22T05:02:51;94662.38;;;5.54;62.37
3968;BME280;9221;42.646;23.380;2024-03-22T05:05:16;94616.59;;;5.25;62.41
3968;BME280;9221;42.646;23.380;2024-03-22T05:07:41;94671.19;;;5.64;61.89
3968;BME280;9221;42.646;23.380;2024-03-22T05:10:07;94664.50;;;5.60;62.23
3968;BME280;9221;42.646;23.380;2024-03-22T05:12:34;94675.56;;;5.41;61.41
3968;BME280;9221;42.646;23.380;2024-03-22T05:15:00;94664.72;;;5.23;61.23
3968;BME280;9221;42.646;23.380;2024-03-22T05:17:25;94676.31;;;4.96;62.66
3968;BME280;9221;42.646;23.380;2024-03-22T05:19:51;94677.88;;;4.74;63.37
3968;BME280;9221;42.646;23.380;2024-03-22T05:22:17;94671.88;;;4.61;64.43
3968;BME280;9221;42.646;23.380;2024-03-22T05:24:45;94693.00;;;4.58;64.75
3968;BME280;9221;42.646;23.380;2024-03-22T05:27:11;94687.03;;;4.56;65.31
3968;BME280;9221;42.646;23.380;2024-03-22T05:29:38;94692.00;;;4.48;65.95
3968;BME280;9221;42.646;23.380;2024-03-22T05:32:03;94684.22;;;4.59;65.99
3968;BME280;9221;42.646;23.380;2024-03-22T05:34:29;94687.56;;;4.61;66.00
3968;BME280;9221;42.646;23.380;2024-03-22T05:36:55;94688.34;;;4.74;65.79
3968;BME280;9221;42.646;23.380;2024-03-22T05:39:20;94691.22;;;4.83;65.58
3968;BME280;9221;42.646;23.380;2024-03-22T05:41:46;94690.63;;;4.90;65.26
3968;BME280;9221;42.646;23.380;2024-03-22T05:44:11;94696.50;;;5.05;64.96
3968;BME280;9221;42.646;23.380;2024-03-22T05:46:37;94708.66;;;5.18;65.04
3968;BME280;9221;42.646;23.380;2024-03-22T05:49:02;94702.56;;;5.41;64.11
3968;BME280;9221;42.646;23.380;2024-03-22T05:51:28;94696.16;;;5.57;63.48
3968;BME280;9221;42.646;23.380;2024-03-22T05:53:55;94704.69;;;5.59;63.83
3968;BME280;9221;42.646;23.380;2024-03-22T05:56:21;94697.72;;;5.93;62.90
3968;BME280;9221;42.646;23.380;2024-03-22T05:58:47;94709.25;;;5.91;61.91
3968;BME280;9221;42.646;23.380;2024-03-22T06:01:12;94729.94;;;5.94;61.84
3968;BME280;9221;42.646;23.380;2024-03-22T06:03:38;94704.78;;;6.04;61.61
3968;BME280;9221;42.646;23.380;2024-03-22T06:06:03;94704.75;;;6.27;61.40
3968;BME280;9221;42.646;23.380;2024-03-22T06:08:29;94711.38;;;6.54;59.77
3968;BME280;9221;42.646;23.380;2024-03-22T06:10:57;94707.81;;;6.55;59.65
3968;BME280;9221;42.646;23.380;2024-03-22T06:13:22;94701.66;;;6.77;58.96
3968;BME280;9221;42.646;23.380;2024-03-22T06:15:48;94706.03;;;6.88;57.78
3968;BME280;9221;42.646;23.380;2024-03-22T06:18:14;94664.72;;;6.80;58.38
3968;BME280;9221;42.646;23.380;2024-03-22T06:20:40;94705.91;;;7.22;57.55
3968;BME280;9221;42.646;23.380;2024-03-22T06:23:07;94697.81;;;7.56;56.99
3968;BME280;9221;42.646;23.380;2024-03-22T06:25:33;94703.88;;;7.77;56.26
3968;BME280;9221;42.646;23.380;2024-03-22T06:27:59;94699.84;;;7.73;55.27
3968;BME280;9221;42.646;23.380;2024-03-22T06:30:25;94709.06;;;7.89;55.52
3968;BME280;9221;42.646;23.380;2024-03-22T06:32:50;94716.56;;;8.03;54.51
3968;BME280;9221;42.646;23.380;2024-03-22T06:35:16;94702.81;;;8.21;53.76
3968;BME280;9221;42.646;23.380;2024-03-22T06:37:41;94705.78;;;8.37;54.23
3968;BME280;9221;42.646;23.380;2024-03-22T06:40:09;94702.13;;;8.69;53.51
3968;BME280;9221;42.646;23.380;2024-03-22T06:42:34;94703.56;;;8.93;52.75
3968;BME280;9221;42.646;23.380;2024-03-22T06:45:00;94709.25;;;9.18;51.52
3968;BME280;9221;42.646;23.380;2024-03-22T06:47:25;94683.50;;;9.02;50.14
3968;BME280;9221;42.646;23.380;2024-03-22T06:49:51;94714.66;;;9.16;50.24
3968;BME280;9221;42.646;23.380;2024-03-22T06:52:16;94719.91;;;9.16;50.10
3968;BME280;9221;42.646;23.380;2024-03-22T06:54:43;94713.25;;;9.22;49.98
3968;BME280;9221;42.646;23.380;2024-03-22T06:57:09;94727.13;;;9.43;49.04
3968;BME280;9221;42.646;23.380;2024-03-22T06:59:34;94732.63;;;9.40;48.67
3968;BME280;9221;42.646;23.380;2024-03-22T07:02:00;94733.19;;;9.54;48.85
3968;BME280;9221;42.646;23.380;2024-03-22T07:04:25;94719.00;;;9.74;49.24
3968;BME280;9221;42.646;23.380;2024-03-22T07:06:51;94730.72;;;10.09;49.16
3968;BME280;9221;42.646;23.380;2024-03-22T07:09:16;94728.84;;;10.39;48.13
3968;BME280;9221;42.646;23.380;2024-03-22T07:11:42;94743.44;;;10.61;47.26
3968;BME280;9221;42.646;23.380;2024-03-22T07:14:07;94735.91;;;10.66;46.72
3968;BME280;9221;42.646;23.380;2024-03-22T07:16:33;94735.06;;;10.66;46.39
3968;BME280;9221;42.646;23.380;2024-03-22T07:18:58;94734.03;;;11.05;45.59
3968;BME280;9221;42.646;23.380;2024-03-22T07:21:24;94729.81;;;11.12;45.45
3968;BME280;9221;42.646;23.380;2024-03-22T07:23:50;94732.25;;;11.49;44.99
3968;BME280;9221;42.646;23.380;2024-03-22T07:26:16;94727.47;;;11.27;44.68
3968;BME280;9221;42.646;23.380;2024-03-22T07:28:41;94730.19;;;11.35;45.09
3968;BME280;9221;42.646;23.380;2024-03-22T07:31:06;94728.06;;;11.57;45.14
3968;BME280;9221;42.646;23.380;2024-03-22T07:33:33;94718.31;;;11.83;43.68
3968;BME280;9221;42.646;23.380;2024-03-22T07:36:02;94720.63;;;11.78;43.86
3968;BME280;9221;42.646;23.380;2024-03-22T07:38:28;94740.00;;;11.87;44.02
3968;BME280;9221;42.646;23.380;2024-03-22T07:40:53;94719.81;;;12.04;43.87
3968;BME280;9221;42.646;23.380;2024-03-22T07:43:19;94726.00;;;12.47;43.70
3968;BME280;9221;42.646;23.380;2024-03-22T07:45:44;94733.41;;;12.78;42.58
3968;BME280;9221;42.646;23.380;2024-03-22T07:48:10;94731.16;;;13.00;41.82
3968;BME280;9221;42.646;23.380;2024-03-22T07:50:36;94729.75;;;12.79;41.53
3968;BME280;9221;42.646;23.380;2024-03-22T07:53:02;94732.94;;;12.48;42.82
3968;BME280;9221;42.646;23.380;2024-03-22T07:55:27;94733.00;;;12.57;41.80
3968;BME280;9221;42.646;23.380;2024-03-22T07:57:53;94744.28;;;12.75;42.05
3968;BME280;9221;42.646;23.380;2024-03-22T08:00:18;94733.16;;;13.06;40.74
3968;BME280;9221;42.646;23.380;2024-03-22T08:02:44;94736.50;;;13.16;40.99
3968;BME280;9221;42.646;23.380;2024-03-22T08:05:10;94739.38;;;13.64;40.41
3968;BME280;9221;42.646;23.380;2024-03-22T08:07:35;94737.19;;;13.93;39.17
3968;BME280;9221;42.646;23.380;2024-03-22T08:10:01;94742.69;;;13.83;39.01
3968;BME280;9221;42.646;23.380;2024-03-22T08:12:28;94736.53;;;13.99;38.40
3968;BME280;9221;42.646;23.380;2024-03-22T08:14:53;94730.22;;;14.25;38.91
3968;BME280;9221;42.646;23.380;2024-03-22T08:17:19;94731.38;;;14.78;37.43
3968;BME280;9221;42.646;23.380;2024-03-22T08:19:44;94734.78;;;15.27;36.65
3968;BME280;9221;42.646;23.380;2024-03-22T08:22:10;94727.00;;;15.48;36.50
3968;BME280;9221;42.646;23.380;2024-03-22T08:24:36;94721.31;;;15.05;36.37
3968;BME280;9221;42.646;23.380;2024-03-22T08:27:04;94723.59;;;15.63;35.81
3968;BME280;9221;42.646;23.380;2024-03-22T08:29:29;94720.47;;;16.50;35.04
3968;BME280;9221;42.646;23.380;2024-03-22T08:31:55;94727.56;;;17.24;33.27
3968;BME280;9221;42.646;23.380;2024-03-22T08:34:21;94730.66;;;16.91;33.96
3968;BME280;9221;42.646;23.380;2024-03-22T08:36:46;94728.03;;;17.50;32.85
3968;BME280;9221;42.646;23.380;2024-03-22T08:39:12;94727.09;;;18.01;32.21
3968;BME280;9221;42.646;23.380;2024-03-22T08:41:38;94722.81;;;18.35;31.40
3968;BME280;9221;42.646;23.380;2024-03-22T08:44:03;94723.97;;;18.89;31.06
3968;BME280;9221;42.646;23.380;2024-03-22T08:46:29;94722.03;;;19.11;30.24
3968;BME280;9221;42.646;23.380;2024-03-22T08:48:54;94723.69;;;19.25;29.84
3968;BME280;9221;42.646;23.380;2024-03-22T08:51:21;94723.31;;;19.35;29.56
3968;BME280;9221;42.646;23.380;2024-03-22T08:53:47;94733.63;;;19.45;29.49
3968;BME280;9221;42.646;23.380;2024-03-22T08:56:12;94731.09;;;19.17;29.84
3968;BME280;9221;42.646;23.380;2024-03-22T08:58:37;94733.97;;;19.15;30.30
3968;BME280;9221;42.646;23.380;2024-03-22T09:01:03;94728.13;;;19.67;29.37
3968;BME280;9221;42.646;23.380;2024-03-22T09:03:29;94733.25;;;19.48;29.40
3968;BME280;9221;42.646;23.380;2024-03-22T09:05:56;94727.31;;;18.98;29.95
3968;BME280;9221;42.646;23.380;2024-03-22T09:08:21;94728.72;;;18.23;30.67
3968;BME280;9221;42.646;23.380;2024-03-22T09:10:47;94726.28;;;18.99;29.77
3968;BME280;9221;42.646;23.380;2024-03-22T09:13:13;94728.75;;;19.62;28.99
3968;BME280;9221;42.646;23.380;2024-03-22T09:15:39;94730.47;;;20.37;27.85
3968;BME280;9221;42.646;23.380;2024-03-22T09:18:05;94757.00;;;20.72;27.14
3968;BME280;9221;42.646;23.380;2024-03-22T09:20:30;94722.16;;;20.72;27.47
3968;BME280;9221;42.646;23.380;2024-03-22T09:22:56;94710.44;;;20.73;27.79
3968;BME280;9221;42.646;23.380;2024-03-22T09:25:23;94711.66;;;20.50;28.10
3968;BME280;9221;42.646;23.380;2024-03-22T09:27:49;94679.78;;;20.28;27.95
3968;BME280;9221;42.646;23.380;2024-03-22T09:30:15;94714.53;;;19.48;28.85
3968;BME280;9221;42.646;23.380;2024-03-22T09:32:40;94704.34;;;19.10;29.49
3968;BME280;9221;42.646;23.380;2024-03-22T09:35:06;94694.13;;;18.85;29.66
3968;BME280;9221;42.646;23.380;2024-03-22T09:37:32;94708.94;;;19.43;29.40
3968;BME280;9221;42.646;23.380;2024-03-22T09:39:58;94694.53;;;19.37;28.87
3968;BME280;9221;42.646;23.380;2024-03-22T09:42:25;94697.06;;;19.79;28.76
3968;BME280;9221;42.646;23.380;2024-03-22T09:44:51;94701.59;;;19.72;28.83
3968;BME280;9221;42.646;23.380;2024-03-22T09:47:19;94698.97;;;20.12;28.43
3968;BME280;9221;42.646;23.380;2024-03-22T09:49:48;94695.72;;;20.95;27.03
3968;BME280;9221;42.646;23.380;2024-03-22T09:52:15;94699.59;;;21.45;26.29
3968;BME280;9221;42.646;23.380;2024-03-22T09:54:42;94698.78;;;21.83;26.03
3968;BME280;9221;42.646;23.380;2024-03-22T09:57:15;94709.78;;;21.75;25.48
3968;BME280;9221;42.646;23.380;2024-03-22T09:59:44;94693.69;;;21.75;25.33
3968;BME280;9221;42.646;23.380;2024-03-22T10:02:12;94686.97;;;21.84;25.16
3968;BME280;9221;42.646;23.380;2024-03-22T10:04:38;94693.03;;;21.41;26.13
3968;BME280;9221;42.646;23.380;2024-03-22T10:07:04;94683.41;;;20.68;27.09
3968;BME280;9221;42.646;23.380;2024-03-22T10:09:30;94693.31;;;20.60;26.52
3968;BME280;9221;42.646;23.380;2024-03-22T10:11:56;94686.69;;;20.83;27.10
3968;BME280;9221;42.646;23.380;2024-03-22T10:14:22;94686.09;;;21.20;26.57
3968;BME280;9221;42.646;23.380;2024-03-22T10:16:51;94685.19;;;21.78;25.94
3968;BME280;9221;42.646;23.380;2024-03-22T10:19:21;94683.47;;;21.06;26.23
3968;BME280;9221;42.646;23.380;2024-03-22T10:22:03;94640.78;;;21.05;26.17
3968;BME280;9221;42.646;23.380;2024-03-22T10:24:29;94681.03;;;21.43;26.70
3968;BME280;9221;42.646;23.380;2024-03-22T10:26:56;94673.59;;;21.07;26.03
3968;BME280;9221;42.646;23.380;2024-03-22T10:29:22;94658.28;;;19.21;27.42
3968;BME280;9221;42.646;23.380;2024-03-22T10:31:56;94679.66;;;18.31;28.90
3968;BME280;9221;42.646;23.380;2024-03-22T10:34:22;94669.44;;;17.85;29.62
3968;BME280;9221;42.646;23.380;2024-03-22T10:36:49;94680.16;;;18.41;29.21
3968;BME280;9221;42.646;23.380;2024-03-22T10:39:17;94580.25;;;18.84;28.99
3968;BME280;9221;42.646;23.380;2024-03-22T10:41:48;94661.56;;;20.71;27.20
3968;BME280;9221;42.646;23.380;2024-03-22T10:44:17;94654.78;;;21.52;25.93
3968;BME280;9221;42.646;23.380;2024-03-22T10:46:48;94669.28;;;21.76;26.02
3968;BME280;9221;42.646;23.380;2024-03-22T10:49:19;94667.25;;;21.72;25.60
3968;BME280;9221;42.646;23.380;2024-03-22T10:52:06;94638.28;;;20.65;26.15
3968;BME280;9221;42.646;23.380;2024-03-22T10:54:40;94636.16;;;19.94;26.63
3968;BME280;9221;42.646;23.380;2024-03-22T10:57:11;94653.69;;;17.40;29.21
3968;BME280;9221;42.646;23.380;2024-03-22T10:59:37;94589.72;;;16.60;30.31
3968;BME280;9221;42.646;23.380;2024-03-22T11:02:03;94645.94;;;17.02;29.95
3968;BME280;9221;42.646;23.380;2024-03-22T11:04:30;94598.28;;;16.55;30.24
3968;BME280;9221;42.646;23.380;2024-03-22T11:06:57;94640.50;;;17.10;30.28
3968;BME280;9221;42.646;23.380;2024-03-22T11:09:26;94629.34;;;18.76;29.15
3968;BME280;9221;42.646;23.380;2024-03-22T11:11:52;94623.78;;;19.40;28.11
3968;BME280;9221;42.646;23.380;2024-03-22T11:14:19;94618.00;;;20.10;27.06
3968;BME280;9221;42.646;23.380;2024-03-22T11:16:46;94623.41;;;20.82;26.43
3968;BME280;9221;42.646;23.380;2024-03-22T11:19:11;94614.91;;;21.62;25.53
3968;BME280;9221;42.646;23.380;2024-03-22T11:21:37;94626.94;;;21.78;25.49
3968;BME280;9221;42.646;23.380;2024-03-22T11:24:04;94623.22;;;21.54;24.97
3968;BME280;9221;42.646;23.380;2024-03-22T11:26:30;94609.38;;;19.68;27.42
3968;BME280;9221;42.646;23.380;2024-03-22T11:28:55;94627.59;;;18.49;28.09
3968;BME280;9221;42.646;23.380;2024-03-22T11:31:22;94615.63;;;17.74;29.26
3968;BME280;9221;42.646;23.380;2024-03-22T11:33:53;94620.25;;;17.16;30.32
3968;BME280;9221;42.646;23.380;2024-03-22T11:36:19;94620.81;;;18.11;29.92
3968;BME280;9221;42.646;23.380;2024-03-22T11:38:44;94612.69;;;19.70;27.99
3968;BME280;9221;42.646;23.380;2024-03-22T11:41:10;94609.09;;;18.47;28.50
3968;BME280;9221;42.646;23.380;2024-03-22T11:43:38;94613.78;;;17.03;30.54
3968;BME280;9221;42.646;23.380;2024-03-22T11:46:04;94605.50;;;17.91;30.30
3968;BME280;9221;42.646;23.380;2024-03-22T11:48:29;94602.53;;;19.05;28.78
3968;BME280;9221;42.646;23.380;2024-03-22T11:50:54;94593.28;;;19.01;27.86
3968;BME280;9221;42.646;23.380;2024-03-22T11:53:21;94593.31;;;19.74;27.52
3968;BME280;9221;42.646;23.380;2024-03-22T11:55:49;94600.66;;;20.33;26.55
3968;BME280;9221;42.646;23.380;2024-03-22T11:58:14;94581.63;;;20.54;26.54
3968;BME280;9221;42.646;23.380;2024-03-22T12:00:41;94577.84;;;20.75;25.49
3968;BME280;9221;42.646;23.380;2024-03-22T12:03:07;94578.09;;;21.06;25.46
3968;BME280;9221;42.646;23.380;2024-03-22T12:05:32;94567.69;;;21.73;25.59
3968;BME280;9221;42.646;23.380;2024-03-22T12:07:58;94564.72;;;22.25;24.51
3968;BME280;9221;42.646;23.380;2024-03-22T12:10:23;94570.81;;;21.95;24.64
3968;BME280;9221;42.646;23.380;2024-03-22T12:12:49;94576.19;;;22.39;23.96
3968;BME280;9221;42.646;23.380;2024-03-22T12:15:14;94562.63;;;21.08;25.17
3968;BME280;9221;42.646;23.380;2024-03-22T12:17:40;94565.50;;;21.06;24.82
3968;BME280;9221;42.646;23.380;2024-03-22T12:20:09;94562.59;;;21.40;24.72
3968;BME280;9221;42.646;23.380;2024-03-22T12:22:35;94562.06;;;20.47;25.58
3968;BME280;9221;42.646;23.380;2024-03-22T12:25:00;94553.97;;;20.15;25.66
3968;BME280;9221;42.646;23.380;2024-03-22T12:27:26;94559.97;;;18.00;27.85
3968;BME280;9221;42.646;23.380;2024-03-22T12:29:51;94557.25;;;17.58;28.35
3968;BME280;9221;42.646;23.380;2024-03-22T12:32:17;94546.72;;;17.00;29.11
3968;BME280;9221;42.646;23.380;2024-03-22T12:34:43;94544.81;;;16.20;30.73
3968;BME280;9221;42.646;23.380;2024-03-22T12:37:09;94530.56;;;15.92;31.02
3968;BME280;9221;42.646;23.380;2024-03-22T12:39:34;94546.13;;;16.10;30.90
3968;BME280;9221;42.646;23.380;2024-03-22T12:42:00;94550.63;;;16.09;31.55
3968;BME280;9221;42.646;23.380;2024-03-22T12:44:26;94556.91;;;15.48;32.07
3968;BME280;9221;42.646;23.380;2024-03-22T12:46:51;94540.63;;;16.11;31.67
3968;BME280;9221;42.646;23.380;2024-03-22T12:49:17;94539.94;;;17.47;30.29
3968;BME280;9221;42.646;23.380;2024-03-22T12:51:43;94539.63;;;17.64;29.60
3968;BME280;9221;42.646;23.380;2024-03-22T12:54:08;94529.47;;;17.81;29.24
3968;BME280;9221;42.646;23.380;2024-03-22T12:56:34;94537.03;;;18.05;28.79
3968;BME280;9221;42.646;23.380;2024-03-22T12:58:59;94533.16;;;18.83;28.14
3968;BME280;9221;42.646;23.380;2024-03-22T13:01:25;94526.19;;;19.96;27.33
3968;BME280;9221;42.646;23.380;2024-03-22T13:03:50;94529.47;;;20.05;26.40
3968;BME280;9221;42.646;23.380;2024-03-22T13:06:16;94526.22;;;19.83;26.42
3968;BME280;9221;42.646;23.380;2024-03-22T13:08:41;94529.84;;;20.15;26.08
3968;BME280;9221;42.646;23.380;2024-03-22T13:11:07;94523.28;;;20.11;25.49